Terminal Aerodrome Forecast
Issued by NWS

Current Version | Previous Version | Text Only | Print | Product List | Glossary Off
Versions: 1 2 3 4 5 6 7 8 9 10 11 12 13 14 15 16 17 18 19 20 21 22 23 24 25 26

000
FTUS41 KILN 241700 RRA
TAFLUK
TAF
KLUK 241743Z 2418/2518 VRB03KT P6SM FEW150
     FM242300 VRB03KT P6SM SCT050
     FM250900 21004KT P6SM BKN050
      TEMPO 2509/2512 2SM BR
     FM251500 23010KT P6SM BKN035=

USA.gov is the U.S. government's official web portal to all federal, state and local government web resources and services.